Puerto Banus, Marbella

>

This is an optional block (switch it off / on) in the settings - file ($SITE['banners'] = false;)

You can display ads, any other important text or photo’s using text / html or PHP code.

You can place one or more at the top and or bottom and it can all be different for content / size .



Meteosat more information blitzortung!


Radar lluvias  rain snow radar


Visita nuestra red de sitios de meteo:

Documentation for the template used

MeteoibericaRed estaciones Meteorologicas

MeteoclimaticRed estaciones Meteorologicas



Sin Advertencias climatologicas .En este momento tenemos Nivel Verde.    No hay Alarmas

Informes METAR proximidad

   
EBAW - Antwerp
Actualización: 17-10-2018 09:50
Parcialmente Nublado  
Parcialmente Nublado  
   Viento: South 3.7 km/h
Viento: South 3.7 km/h
Temperatura: 14°C
Punto de rocío: 12°C
Humedad: 88%
Baromètro: 1019 hPa
Nublado: Parcialmente Nublado
Visibilidad: 6 km
detalles de la nube: Parcialmente Nublado
EBAW 170750Z 19002KT 6000 NSC 14/12 Q1019 NOSIG
EBLG - Liège
Actualización: 17-10-2018 09:50
Claros  
Claros  
   Viento: SSE 9.3 km/h
Viento: SSE 9.3 km/h
Temperatura: 13°C
Punto de rocío: 9°C
Humedad: 77%
Baromètro: 1019 hPa
Visibilidad: More than 10 km
detalles de la nube: Claros
EBLG 170750Z 16005KT CAVOK 13/09 Q1019 NOSIG
EBCV - Mons/Bergen
Actualización: 17-10-2018 09:55
Niebla, Parcialmente Nublado  
Niebla, Parcialmente Nublado  
   Viento: varía 1.9 km/h
Viento: varía 1.9 km/h
Temperatura: 11°C
Punto de rocío: 10°C
Humedad: 94%
Baromètro: 1020 hPa
Nublado: Parcialmente Nublado
Visibilidad: 2 km
detalles de la nube: Parcialmente Nublado 100 ft
EBCV 170755Z AUTO VRB01KT 1500 BR SCT001/// 11/10 Q1020 RED
EHBK - Maastricht
Actualización: 17-10-2018 09:55
Parcialmente Nublado  
Parcialmente Nublado  
   Viento: SW 11.1 km/h
Viento: SW 11.1 km/h
Temperatura: 13°C
Punto de rocío: 10°C
Humedad: 82%
Baromètro: 1019 hPa
Nublado: Parcialmente Nublado
Visibilidad: More than 10 km
detalles de la nube: Parcialmente Nublado
EHBK 170755Z AUTO 23006KT 210V270 9999 NSC 13/10 Q1019 NOSIG
ELLX - Luxemburg
Actualización: 17-10-2018 09:50
Claros  
Claros  
   Viento: NE 11.1 km/h
Viento: NE 11.1 km/h
Temperatura: 14°C
Punto de rocío: 9°C
Humedad: 72%
Baromètro: 1019 hPa
Visibilidad: More than 10 km
detalles de la nube: Claros
ELLX 170750Z 04006KT CAVOK 14/09 Q1019 NOSIG
EBOS - Oostende
Actualización: 17-10-2018 09:50
Niebla, Parcialmente Nublado  
Niebla, Parcialmente Nublado  
   Viento: SSW 5.6 km/h
Viento: SSW 5.6 km/h
Temperatura: 12°C
Punto de rocío: 10°C
Humedad: 88%
Baromètro: 1019 hPa
Nublado: Parcialmente Nublado
Visibilidad: 5 km
detalles de la nube: Nubes dispersas 1000 ft,
Parcialmente Nublado 3500 ft
EBOS 170750Z 21003KT 170V240 4500 BR FEW010 SCT035 12/10 Q1019 BECMG 6000

Guión original por  Saratoga-weather.org Adaptado para la plantilla por  Weerstation Leuven

Usted encontrará nuestra información del tiempo también en:

Weather Underground

Iberian Peninsula Weather Network